Hialeah, FL (33010)

12:02 AM EDT on July 24, 2016 (GMT -0400)
Little Havana-West Flagler Street in Miami Florida | | Change Station

Elev 13 ft 25.77 °N, 80.25 °W | Updated 10 seconds ago

Overcast
Overcast
79.0 °F
Feels Like 82 °F
N
0.0
Wind Variable Wind from NNW
Gusts 2.7 mph

Today
High -- | Low -- °F
--% Chance of Precip.
Yesterday
High -- | Low -- °F
Precip. -- in
Pressure 30.07 in
Visibility 10.0 miles
Clouds Few 2500 ft
Few 5500 ft
Scattered Clouds 10000 ft
Overcast 20000 ft
Heat Index 82 °F
Dew Point 72 °F
Humidity 78%
Rainfall 0.00 in
Snow Depth Not available.
6:43 AM 8:11 PM
Waning Gibbous, 80% visible
METAR KMIA 240353Z 34003KT 10SM FEW025 FEW055 SCT100 OVC200 25/22 A3006 RMK AO2 RAB16E51 SLP181 OCNL LTGIC DSNT N CB DSNT N P0000 T02500222
Pressure 30.07 in
Visibility 10.0 miles
Clouds Few 2500 ft
Few 5500 ft
Scattered Clouds 10000 ft
Overcast 20000 ft
Heat Index 82 °F
Dew Point 72 °F
Humidity 78%
Rainfall 0.00 in
Snow Depth Not available.
6:43 AM 8:11 PM
Waning Gibbous, 80% visible
METAR KMIA 240353Z 34003KT 10SM FEW025 FEW055 SCT100 OVC200 25/22 A3006 RMK AO2 RAB16E51 SLP181 OCNL LTGIC DSNT N CB DSNT N P0000 T02500222

10-Day Weather Forecast

Almanac

Astronomy

Jul. 24, 2016 Rise Set
Actual Time
Civil Twilight
Nautical Twilight
Astronomical Twilight
Moon
Length of Visible Light
Length of Day
Tomorrow will be .
, % of the Moon is Illuminated

Today's Extremes

State Highs State Lows

Community

WunderPhotos

Upload Photos

1,927,025 photos uploaded!

WunderBlog® & News

Nearby

Air Quality

  Air Quality AQ Index Pollutant
Not available.

Snow Depth

Station Depth Elevation

Earthquake Activity

City Distance Mag. Time & Date
Minimum magnitude displayed is 2.5.

Coastal Water Temperatures

Place Temperature

Stations

Nearby Weather Stations

Station Location Temp. Windchill Dew Point Humidity Wind Precip. Elev Updated Type
                   

Watches & Warnings

There are currently no watches in effect.